Time;durP1;ratioP1;P1;durP2;ratioP2;P2;SDS_P1;SDS_P2;PMS_P1;PMS_P2;Temp;Humidity;BMP_temperature;BMP_pressure;BME280_temperature;BME280_humidity;BME280_pressure;Samples;Min_cycle;Max_cycle;Signal;HPM_P1;HPM_P2
2023/06/18 00:00:15;;;;;;;;;17.00;16.25;;;;;25.14;41.64;100782.97;6309458;22;44804;-95
2023/06/18 00:02:41;;;;;;;;;13.50;13.50;;;;;25.13;41.16;100782.09;6261035;22;44940;-96
2023/06/18 00:05:07;;;;;;;;;19.00;17.75;;;;;25.14;41.77;100777.63;6285843;22;45507;-96
2023/06/18 00:07:32;;;;;;;;;18.00;18.00;;;;;25.17;41.42;100777.31;6288425;22;44747;-95
2023/06/18 00:09:57;;;;;;;;;15.50;15.50;;;;;25.15;41.42;100774.81;6261007;22;44667;-96
2023/06/18 00:12:23;;;;;;;;;18.25;18.25;;;;;25.18;41.83;100779.84;6286593;22;44765;-96
2023/06/18 00:14:48;;;;;;;;;19.50;18.75;;;;;25.11;41.51;100770.78;6290042;22;45358;-95
2023/06/18 00:17:15;;;;;;;;;19.25;16.75;;;;;25.12;41.49;100763.66;6262875;22;44567;-96
2023/06/18 00:19:40;;;;;;;;;19.00;17.00;;;;;25.09;41.42;100762.94;6264291;22;44841;-94
2023/06/18 00:22:05;;;;;;;;;19.00;17.75;;;;;25.09;41.63;100764.78;6264823;22;44929;-96
2023/06/18 00:24:31;;;;;;;;;14.75;14.75;;;;;25.06;41.63;100763.25;6289296;22;45653;-95
2023/06/18 00:26:56;;;;;;;;;20.50;19.75;;;;;25.08;41.22;100768.41;6284635;22;44738;-95
2023/06/18 00:29:22;;;;;;;;;18.50;18.50;;;;;25.03;41.50;100770.69;6293936;22;45231;-96
2023/06/18 00:31:47;;;;;;;;;16.50;15.25;;;;;25.04;42.06;100767.88;6267496;22;44900;-95
2023/06/18 00:34:15;;;;;;;;;16.75;16.25;;;;;25.02;41.80;100769.00;6292672;22;45599;-95
2023/06/18 00:36:43;;;;;;;;;19.25;17.00;;;;;25.01;42.07;100772.66;6293859;22;44711;-96
2023/06/18 00:39:09;;;;;;;;;20.00;19.75;;;;;24.99;42.24;100759.50;6287912;22;44790;-94
2023/06/18 00:41:35;;;;;;;;;19.25;19.25;;;;;24.98;41.93;100765.81;6286177;22;45294;-96
2023/06/18 00:44:01;;;;;;;;;15.75;15.75;;;;;24.97;41.74;100766.81;6288791;22;45753;-96
2023/06/18 00:46:30;;;;;;;;;17.75;17.75;;;;;24.95;41.87;100768.78;6288547;22;44657;-96
2023/06/18 00:48:57;;;;;;;;;18.75;16.75;;;;;24.93;42.21;100773.41;6286779;22;44658;-96
2023/06/18 00:51:26;;;;;;;;;18.50;17.25;;;;;24.91;42.30;100773.53;6288681;22;45151;-95
2023/06/18 00:53:52;;;;;;;;;17.25;15.75;;;;;24.86;42.00;100791.81;6257796;22;45500;-95
2023/06/18 00:56:18;;;;;;;;;18.75;17.25;;;;;24.91;42.20;100810.00;6281134;22;44637;-95
2023/06/18 00:58:47;;;;;;;;;19.00;19.00;;;;;24.84;42.47;100811.56;6253963;22;44759;-95
2023/06/18 01:01:14;;;;;;;;;19.50;18.50;;;;;24.78;41.85;100807.63;6314958;22;45293;-95
2023/06/18 01:03:41;;;;;;;;;20.00;18.25;;;;;24.76;42.00;100813.09;6322031;22;45554;-95
2023/06/18 01:06:09;;;;;;;;;19.75;18.50;;;;;24.72;42.13;100802.91;6322662;22;44675;-95
2023/06/18 01:08:35;;;;;;;;;17.00;17.00;;;;;24.74;42.37;100815.06;6324677;22;44682;-95
2023/06/18 01:11:03;;;;;;;;;17.75;17.75;;;;;24.75;42.58;100824.72;6324255;22;44830;-93
2023/06/18 01:13:36;;;;;;;;;20.00;18.75;;;;;24.72;42.42;100825.03;6353990;22;45235;-95
2023/06/18 01:16:05;;;;;;;;;17.75;17.75;;;;;24.72;42.81;100830.34;6361286;22;44782;-96
2023/06/18 01:18:36;;;;;;;;;22.25;22.00;;;;;24.77;43.44;100827.25;6320306;22;45317;-94
2023/06/18 01:21:09;;;;;;;;;19.50;18.00;;;;;24.75;43.83;100819.41;6314147;22;45512;-93
2023/06/18 01:24:01;;;;;;;;;19.25;18.00;;;;;24.74;45.12;100803.56;6313790;22;45518;-92
2023/06/18 01:26:29;;;;;;;;;24.00;20.00;;;;;24.76;45.46;100797.13;6306609;22;45435;-92
2023/06/18 01:28:58;;;;;;;;;17.00;17.00;;;;;24.72;46.25;100810.88;6288151;22;45342;-91
2023/06/18 01:31:24;;;;;;;;;23.00;21.75;;;;;24.67;46.63;100808.66;6313994;22;45278;-90
2023/06/18 01:33:53;;;;;;;;;20.50;20.50;;;;;24.64;47.10;100808.94;6313585;22;46942;-90
2023/06/18 01:36:47;;;;;;;;;20.25;19.00;;;;;24.61;47.63;100798.59;6313340;22;45389;-90
2023/06/18 01:39:38;;;;;;;;;19.00;16.25;;;;;24.52;48.40;100765.72;6312874;22;45357;-90
2023/06/18 01:42:18;;;;;;;;;23.25;21.25;;;;;24.42;48.75;100755.97;6314547;22;44919;-94
2023/06/18 01:44:47;;;;;;;;;26.00;24.50;;;;;24.36;49.23;100761.88;6308301;22;47226;-94
2023/06/18 01:47:15;;;;;;;;;26.50;26.25;;;;;24.26;49.41;100769.88;6314369;22;45191;-96
2023/06/18 01:49:44;;;;;;;;;25.25;24.75;;;;;24.20;49.45;100780.28;6319929;22;44619;-95
2023/06/18 01:52:12;;;;;;;;;24.25;23.00;;;;;24.13;49.81;100785.31;6323105;22;44951;-94
2023/06/18 01:54:42;;;;;;;;;24.25;23.00;;;;;24.08;50.14;100792.88;6328822;22;47302;-96
2023/06/18 01:57:08;;;;;;;;;22.00;21.50;;;;;23.96;49.84;100793.00;6324243;22;44973;-95
2023/06/18 01:59:34;;;;;;;;;26.75;23.00;;;;;23.96;50.14;100793.00;6316844;22;45384;-95
2023/06/18 02:01:59;;;;;;;;;24.50;24.00;;;;;23.92;50.46;100785.47;6315034;22;45536;-96
2023/06/18 02:04:25;;;;;;;;;22.00;22.00;;;;;23.83;50.67;100790.63;6314372;22;46577;-94
2023/06/18 02:06:50;;;;;;;;;22.00;22.00;;;;;23.85;50.89;100801.97;6315068;22;44704;-94
2023/06/18 02:09:16;;;;;;;;;24.50;23.25;;;;;23.73;50.91;100795.97;6314701;22;45392;-96
2023/06/18 02:11:41;;;;;;;;;23.25;23.00;;;;;23.68;51.10;100800.00;6316043;22;44793;-95
2023/06/18 02:14:07;;;;;;;;;21.50;21.25;;;;;23.63;51.07;100795.13;6317558;22;47311;-96
2023/06/18 02:16:32;;;;;;;;;23.00;23.00;;;;;23.58;51.50;100814.13;6317155;22;44731;-95
2023/06/18 02:18:57;;;;;;;;;27.50;24.00;;;;;23.58;51.69;100826.56;6318408;22;44742;-96
2023/06/18 02:21:23;;;;;;;;;26.25;26.25;;;;;23.53;51.83;100812.88;6321016;22;45314;-94
2023/06/18 02:23:48;;;;;;;;;25.00;23.50;;;;;23.54;51.76;100815.38;6313801;22;46553;-94
2023/06/18 02:26:16;;;;;;;;;28.75;26.00;;;;;23.55;52.65;100803.78;6312028;22;45301;-94
2023/06/18 02:28:42;;;;;;;;;25.00;25.00;;;;;23.52;52.94;100793.44;6315747;22;45597;-95
2023/06/18 02:31:07;;;;;;;;;25.25;25.25;;;;;23.53;53.53;100794.28;6319312;22;44754;-93
2023/06/18 02:33:33;;;;;;;;;27.25;26.75;;;;;23.49;53.75;100805.19;6319311;22;46846;-93
2023/06/18 02:35:58;;;;;;;;;27.50;26.75;;;;;23.44;54.47;100812.72;6319854;22;45297;-92
2023/06/18 02:38:23;;;;;;;;;28.25;26.50;;;;;23.43;54.37;100805.75;6317670;22;45286;-91
2023/06/18 02:40:49;;;;;;;;;31.50;29.75;;;;;23.42;54.68;100788.13;6312604;22;45253;-92
2023/06/18 02:43:17;;;;;;;;;28.50;27.50;;;;;23.42;54.47;100782.81;6313190;22;47276;-92
2023/06/18 02:45:42;;;;;;;;;21.25;21.25;;;;;23.41;55.12;100770.50;6312238;22;45293;-92
2023/06/18 02:48:08;;;;;;;;;29.00;28.00;;;;;23.42;55.39;100785.47;6315852;22;45329;-95
2023/06/18 02:50:33;;;;;;;;;30.00;27.75;;;;;23.41;55.43;100781.13;6312062;22;45617;-94
2023/06/18 02:52:58;;;;;;;;;32.75;28.25;;;;;23.39;55.40;100779.59;6312202;22;46840;-94
2023/06/18 02:55:24;;;;;;;;;25.75;25.75;;;;;23.31;55.26;100772.28;6339943;22;45273;-93
2023/06/18 02:57:50;;;;;;;;;27.00;27.00;;;;;23.27;55.47;100771.72;6340746;22;45582;-95
2023/06/18 03:00:16;;;;;;;;;30.00;28.00;;;;;23.20;55.55;100774.06;6312049;22;45230;-96
2023/06/18 03:02:42;;;;;;;;;28.75;27.75;;;;;23.17;55.92;100769.06;6311541;22;45888;-94
2023/06/18 03:05:08;;;;;;;;;29.50;27.75;;;;;23.09;56.32;100767.09;6312710;22;45294;-95
2023/06/18 03:07:33;;;;;;;;;30.50;30.00;;;;;23.05;56.30;100764.84;6317292;22;44787;-95
2023/06/18 03:09:59;;;;;;;;;28.25;28.00;;;;;23.07;56.65;100774.38;6319578;22;45329;-95
2023/06/18 03:12:25;;;;;;;;;29.00;27.25;;;;;22.98;56.63;100756.59;6347555;22;45257;-95
2023/06/18 03:14:51;;;;;;;;;26.75;25.75;;;;;23.00;56.81;100767.06;6321416;22;44721;-95
2023/06/18 03:17:16;;;;;;;;;31.00;30.25;;;;;22.96;56.99;100774.47;6316806;22;44769;-95
2023/06/18 03:19:42;;;;;;;;;31.75;29.75;;;;;22.96;57.83;100785.09;6313215;22;44754;-96
2023/06/18 03:22:07;;;;;;;;;27.50;26.75;;;;;22.88;57.47;100776.94;6340269;22;45252;-95
2023/06/18 03:24:34;;;;;;;;;28.25;27.50;;;;;22.90;57.29;100782.94;6340781;22;44729;-95
2023/06/18 03:27:00;;;;;;;;;31.75;28.75;;;;;22.93;57.78;100796.81;6313313;22;45221;-95
2023/06/18 03:29:26;;;;;;;;;29.00;29.00;;;;;22.92;58.08;100794.28;6313076;22;44837;-96
2023/06/18 03:31:54;;;;;;;;;28.00;27.25;;;;;22.87;57.71;100789.38;6312113;22;46824;-96
2023/06/18 03:34:20;;;;;;;;;31.00;30.00;;;;;22.86;58.27;100794.81;6311323;22;45271;-95
2023/06/18 03:36:47;;;;;;;;;29.50;27.25;;;;;22.89;57.83;100799.84;6312397;22;45317;-95
2023/06/18 03:39:15;;;;;;;;;27.00;27.00;;;;;22.81;58.13;100789.91;6313605;22;44791;-96
2023/06/18 03:41:40;;;;;;;;;28.75;28.50;;;;;22.83;58.03;100798.59;6313598;22;45791;-95
2023/06/18 03:44:05;;;;;;;;;27.25;27.00;;;;;22.81;58.62;100798.72;6341827;22;44674;-96
2023/06/18 03:46:32;;;;;;;;;23.50;22.00;;;;;22.78;58.31;100803.44;6346917;22;44617;-95
2023/06/18 03:48:57;;;;;;;;;32.75;30.75;;;;;22.76;58.20;100803.56;6350858;22;44832;-96
2023/06/18 03:51:26;;;;;;;;;34.25;31.50;;;;;22.75;58.74;100809.88;6327561;22;45808;-96
2023/06/18 03:53:52;;;;;;;;;30.00;29.25;;;;;22.74;58.50;100807.34;6328440;22;44727;-96
2023/06/18 03:56:23;;;;;;;;;32.50;31.00;;;;;22.75;58.74;100816.97;6327884;22;44804;-96
2023/06/18 03:58:51;;;;;;;;;31.00;29.25;;;;;22.72;59.15;100809.28;6327378;22;44907;-95
2023/06/18 04:01:16;;;;;;;;;29.75;28.75;;;;;22.72;59.28;100807.47;6354328;22;45546;-96
2023/06/18 04:03:42;;;;;;;;;33.25;29.75;;;;;22.74;59.09;100812.63;6326908;22;44712;-96
2023/06/18 04:06:08;;;;;;;;;31.50;29.50;;;;;22.70;59.29;100804.13;6327887;22;44638;-96
2023/06/18 04:08:34;;;;;;;;;30.00;29.00;;;;;22.71;58.76;100803.13;6329185;22;44907;-96
2023/06/18 04:11:00;;;;;;;;;29.25;29.00;;;;;22.71;59.58;100805.78;6357665;22;45072;-96
2023/06/18 04:13:28;;;;;;;;;28.00;25.00;;;;;22.72;59.39;100812.75;6335170;22;44604;-96
2023/06/18 04:15:54;;;;;;;;;29.75;29.50;;;;;22.78;59.53;100814.88;6335053;22;44750;-96
2023/06/18 04:18:20;;;;;;;;;26.75;26.75;;;;;22.71;59.12;100799.66;6338835;22;44928;-96
2023/06/18 04:23:21;;;;;;;;;30.75;28.25;;;;;22.74;59.28;100805.53;6333324;22;44794;-96
2023/06/18 04:28:50;;;;;;;;;29.00;28.00;;;;;22.77;59.36;100809.75;6352312;22;44927;-96
2023/06/18 04:31:16;;;;;;;;;30.75;27.75;;;;;22.73;59.49;100795.06;6333744;22;45443;-96
2023/06/18 04:33:42;;;;;;;;;29.75;29.00;;;;;22.74;59.92;100796.72;6364391;22;44608;-96
2023/06/18 04:36:08;;;;;;;;;30.00;27.25;;;;;22.81;59.58;100804.03;6331772;22;44706;-96
2023/06/18 04:38:33;;;;;;;;;29.25;27.00;;;;;22.78;59.38;100793.66;6328041;22;44843;-96
2023/06/18 04:40:59;;;;;;;;;28.50;28.00;;;;;22.83;60.02;100803.91;6352831;22;45223;-96
2023/06/18 04:43:27;;;;;;;;;29.00;28.25;;;;;22.80;59.97;100801.50;6329187;22;44589;-96
2023/06/18 04:45:52;;;;;;;;;28.75;27.75;;;;;22.78;60.03;100804.28;6329694;22;44696;-95
2023/06/18 04:48:18;;;;;;;;;27.25;26.75;;;;;22.80;60.15;100804.16;6360061;22;44801;-96
2023/06/18 04:50:44;;;;;;;;;30.75;29.25;;;;;22.80;59.74;100809.44;6333187;22;45455;-96
2023/06/18 04:53:10;;;;;;;;;29.00;27.00;;;;;22.81;60.48;100801.38;6332619;22;44730;-96
2023/06/18 04:55:36;;;;;;;;;28.75;27.50;;;;;22.81;60.10;100811.97;6331668;22;44757;-96
2023/06/18 04:58:04;;;;;;;;;26.75;25.50;;;;;22.80;59.66;100804.16;6328888;22;44840;-96
2023/06/18 05:00:29;;;;;;;;;25.75;25.75;;;;;22.81;59.75;100809.31;6328624;22;45786;-96
2023/06/18 05:02:57;;;;;;;;;25.00;25.00;;;;;22.83;60.14;100814.50;6357633;22;44582;-96
2023/06/18 05:05:23;;;;;;;;;29.50;28.75;;;;;22.83;59.95;100817.97;6332270;22;44820;-96
2023/06/18 05:07:48;;;;;;;;;26.50;25.50;;;;;22.81;60.01;100814.63;6332179;22;44819;-96
2023/06/18 05:10:14;;;;;;;;;27.25;26.75;;;;;22.82;59.93;100818.13;6358398;22;45499;-96
2023/06/18 05:12:39;;;;;;;;;29.25;29.25;;;;;22.82;60.10;100823.44;6355961;22;44680;-96
2023/06/18 05:15:07;;;;;;;;;29.50;26.50;;;;;22.82;60.14;100826.09;6328014;22;44805;-96
2023/06/18 05:17:34;;;;;;;;;27.25;25.50;;;;;22.82;59.63;100823.44;6327236;22;44884;-96
2023/06/18 05:20:01;;;;;;;;;28.00;27.50;;;;;22.84;60.05;100821.47;6326918;22;45841;-96
2023/06/18 05:22:26;;;;;;;;;27.25;25.25;;;;;22.82;60.46;100815.47;6325928;22;44796;-96
2023/06/18 05:24:52;;;;;;;;;25.25;24.25;;;;;22.82;60.08;100820.78;6325872;22;44693;-96
2023/06/18 05:27:17;;;;;;;;;26.75;26.50;;;;;22.82;60.09;100826.09;6353336;22;44786;-94
2023/06/18 05:29:43;;;;;;;;;32.25;30.00;;;;;22.84;60.39;100832.09;6347557;22;45457;-96
2023/06/18 05:32:09;;;;;;;;;28.50;26.25;;;;;22.79;60.34;100834.31;6319663;22;44708;-95
2023/06/18 05:34:35;;;;;;;;;27.25;26.50;;;;;22.82;60.24;100842.00;6345741;22;44741;-95
2023/06/18 05:37:00;;;;;;;;;22.25;21.00;;;;;22.79;60.23;100836.97;6347093;22;44861;-96
2023/06/18 05:39:26;;;;;;;;;31.00;29.25;;;;;22.80;60.15;100835.97;6343907;22;45613;-96
2023/06/18 05:41:52;;;;;;;;;23.75;23.75;;;;;22.83;60.19;100846.34;6346916;22;44818;-96
2023/06/18 05:44:17;;;;;;;;;27.00;26.25;;;;;22.82;60.34;100845.47;6349165;22;44747;-95
2023/06/18 05:46:43;;;;;;;;;24.75;24.50;;;;;22.83;59.89;100847.16;6321111;22;44849;-94
2023/06/18 05:49:09;;;;;;;;;26.50;24.50;;;;;22.82;60.48;100852.63;6322559;22;45586;-95
2023/06/18 05:51:35;;;;;;;;;23.50;23.50;;;;;22.87;60.58;100858.34;6318976;22;45239;-96
2023/06/18 05:54:01;;;;;;;;;25.25;24.00;;;;;22.84;60.34;100842.69;6343394;22;44809;-96
2023/06/18 05:56:26;;;;;;;;;26.00;25.75;;;;;22.82;60.41;100848.13;6341989;22;44764;-95
2023/06/18 05:58:52;;;;;;;;;28.25;26.25;;;;;22.81;60.70;100843.81;6342759;22;45189;-96
2023/06/18 06:01:18;;;;;;;;;25.00;24.25;;;;;22.83;60.62;100849.00;6314155;22;44772;-95
2023/06/18 06:03:43;;;;;;;;;24.00;24.00;;;;;22.82;60.36;100842.00;6314267;22;44665;-95
2023/06/18 06:06:09;;;;;;;;;24.50;24.50;;;;;22.82;60.21;100840.19;6315546;22;44879;-94
2023/06/18 06:08:34;;;;;;;;;26.50;25.75;;;;;22.82;59.91;100847.31;6313095;22;45875;-96
2023/06/18 06:11:00;;;;;;;;;27.00;26.75;;;;;22.80;60.42;100844.78;6341889;22;44643;-95
2023/06/18 06:13:25;;;;;;;;;24.75;24.75;;;;;22.83;59.94;100856.94;6316485;22;44747;-96
2023/06/18 06:15:51;;;;;;;;;26.50;25.50;;;;;22.82;60.47;100858.75;6350319;22;44785;-95
2023/06/18 06:18:16;;;;;;;;;23.25;23.25;;;;;22.84;60.47;100861.28;6318792;22;46778;-96
2023/06/18 06:20:41;;;;;;;;;23.50;23.00;;;;;22.81;60.08;100859.72;6346364;22;44660;-96
2023/06/18 06:23:10;;;;;;;;;21.25;21.25;;;;;22.83;60.28;100859.59;6324770;22;44752;-96
2023/06/18 06:25:35;;;;;;;;;21.50;21.00;;;;;22.85;59.76;100862.94;6326263;22;45037;-94
2023/06/18 06:28:00;;;;;;;;;22.25;20.25;;;;;22.81;60.56;100851.75;6336936;22;46628;-96
2023/06/18 06:30:26;;;;;;;;;21.75;21.75;;;;;22.81;60.25;100849.13;6354281;22;44797;-95
2023/06/18 06:32:52;;;;;;;;;21.00;20.25;;;;;22.83;60.58;100844.50;6353365;22;44841;-96
2023/06/18 06:35:17;;;;;;;;;21.00;19.50;;;;;22.83;60.36;100847.16;6352619;22;44818;-96
2023/06/18 06:37:46;;;;;;;;;21.25;21.25;;;;;22.88;60.27;100853.88;6356600;22;46839;-96
2023/06/18 06:40:12;;;;;;;;;21.50;21.50;;;;;22.83;60.09;100847.16;6357979;22;44681;-95
2023/06/18 06:42:37;;;;;;;;;26.25;24.25;;;;;22.89;60.38;100852.91;6356395;22;44656;-96
2023/06/18 06:45:03;;;;;;;;;22.75;22.00;;;;;22.82;60.14;100842.00;6387870;22;44750;-96
2023/06/18 06:47:28;;;;;;;;;26.00;23.00;;;;;22.83;60.04;100830.41;6395656;22;46760;-96
2023/06/18 06:49:54;;;;;;;;;21.50;21.25;;;;;22.85;60.18;100832.94;6372407;22;44717;-95
2023/06/18 06:52:20;;;;;;;;;25.50;24.25;;;;;22.85;60.82;100827.63;6372576;22;44804;-95
2023/06/18 06:54:47;;;;;;;;;20.75;20.75;;;;;22.88;60.04;100830.84;6292588;22;45999;-92
2023/06/18 06:57:13;;;;;;;;;23.25;23.00;;;;;22.87;60.00;100834.47;6341016;22;46406;-96
2023/06/18 07:02:09;;;;;;;;;23.75;23.75;;;;;22.92;60.65;100831.44;6336318;22;44785;-96
2023/06/18 07:04:34;;;;;;;;;22.50;22.50;;;;;22.93;60.35;100833.97;6336170;22;44924;-95
2023/06/18 07:07:00;;;;;;;;;25.25;23.25;;;;;22.93;60.43;100828.66;6333224;22;45239;-96
2023/06/18 07:09:34;;;;;;;;;21.75;21.00;;;;;22.95;60.20;100823.19;6294154;22;45297;-96
2023/06/18 07:12:07;;;;;;;;;25.50;25.25;;;;;22.96;60.51;100828.38;6321020;22;45294;-93
2023/06/18 07:14:33;;;;;;;;;22.75;21.75;;;;;23.04;60.31;100827.69;6300530;22;45268;-92
2023/06/18 07:17:01;;;;;;;;;19.75;19.75;;;;;23.06;60.56;100835.53;6300257;22;47055;-92
2023/06/18 07:19:26;;;;;;;;;21.00;20.50;;;;;23.09;60.12;100835.25;6296610;22;45311;-91
2023/06/18 07:21:53;;;;;;;;;21.50;21.50;;;;;23.08;60.00;100830.91;6301750;22;45232;-92
2023/06/18 07:24:19;;;;;;;;;20.25;20.25;;;;;23.16;59.69;100835.53;6297116;22;45204;-92
2023/06/18 07:26:45;;;;;;;;;25.50;24.50;;;;;23.14;59.99;100832.19;6291980;22;46810;-93
2023/06/18 07:29:35;;;;;;;;;24.00;22.75;;;;;23.16;59.45;100825.78;6291036;22;45183;-93
2023/06/18 07:32:00;;;;;;;;;20.75;20.75;;;;;23.22;59.37;100835.00;6287230;22;44807;-92
2023/06/18 07:34:25;;;;;;;;;23.00;21.75;;;;;23.23;59.48;100832.22;6286087;22;45290;-91
2023/06/18 07:36:51;;;;;;;;;22.75;22.75;;;;;23.25;59.43;100829.44;6285797;22;45554;-92
2023/06/18 07:39:20;;;;;;;;;22.75;21.25;;;;;23.28;59.57;100834.44;6315220;22;45397;-91
2023/06/18 07:41:49;;;;;;;;;21.50;21.00;;;;;23.31;59.92;100830.69;6286526;22;45287;-95
2023/06/18 07:44:14;;;;;;;;;24.00;24.00;;;;;23.29;59.74;100828.16;6316431;22;45375;-88
2023/06/18 07:46:42;;;;;;;;;21.25;21.25;;;;;23.31;60.42;100826.25;6283453;22;47860;-86
2023/06/18 07:49:20;;;;;;;;;26.00;23.25;;;;;23.33;60.00;100829.59;6276825;22;45243;-87
2023/06/18 07:51:46;;;;;;;;;24.25;23.75;;;;;23.37;59.68;100832.00;6306782;22;45497;-87
2023/06/18 07:54:11;;;;;;;;;27.00;26.00;;;;;23.37;59.79;100832.00;6305758;22;45571;-87
2023/06/18 07:56:37;;;;;;;;;23.50;21.75;;;;;23.39;60.20;100836.19;6278511;22;47146;-87
2023/06/18 07:59:02;;;;;;;;;22.50;22.50;;;;;23.40;60.31;100834.38;6305028;22;45411;-87
2023/06/18 08:01:27;;;;;;;;;23.50;22.25;;;;;23.41;60.14;100836.88;6273419;22;45353;-88
2023/06/18 08:03:53;;;;;;;;;27.00;24.50;;;;;23.44;60.07;100833.97;6274204;22;45517;-87
2023/06/18 08:06:18;;;;;;;;;25.50;23.75;;;;;23.44;59.82;100827.81;6275534;22;46088;-88
2023/06/18 08:08:47;;;;;;;;;19.75;19.75;;;;;23.48;59.89;100823.91;6273881;22;45432;-88
2023/06/18 08:11:12;;;;;;;;;21.75;20.75;;;;;23.53;60.31;100823.47;6276851;22;45301;-94
2023/06/18 08:13:37;;;;;;;;;20.25;20.00;;;;;23.57;59.87;100815.13;6278215;22;44814;-95
2023/06/18 08:16:04;;;;;;;;;24.50;23.50;;;;;23.62;59.66;100817.34;6281701;22;45755;-95
2023/06/18 08:18:29;;;;;;;;;23.00;22.00;;;;;23.65;60.04;100802.97;6282382;22;44642;-94
2023/06/18 08:20:55;;;;;;;;;25.75;22.75;;;;;23.72;59.51;100806.72;6283687;22;44626;-96
2023/06/18 08:23:20;;;;;;;;;23.75;23.25;;;;;23.73;59.17;100800.44;6313645;22;44861;-96
2023/06/18 08:25:46;;;;;;;;;24.00;24.00;;;;;23.82;59.59;100815.53;6289881;22;46832;-95
2023/06/18 08:28:11;;;;;;;;;23.75;19.00;;;;;23.87;58.69;100815.94;6278120;22;44655;-95
2023/06/18 08:30:39;;;;;;;;;24.75;23.00;;;;;23.88;58.29;100814.97;6277907;22;44689;-95
2023/06/18 08:33:04;;;;;;;;;22.50;19.75;;;;;23.88;58.23;100811.47;6276241;22;44946;-96
2023/06/18 08:35:51;;;;;;;;;21.25;20.50;;;;;23.96;58.74;100814.25;6274991;22;45748;-94
2023/06/18 08:38:31;;;;;;;;;20.50;20.50;;;;;23.93;58.88;100803.91;6189529;22;45355;-87
2023/06/18 08:41:05;;;;;;;;;22.25;19.25;;;;;23.94;58.38;100802.94;6170650;22;45433;-87
2023/06/18 08:43:37;;;;;;;;;22.50;22.00;;;;;24.00;58.14;100806.84;6242313;22;45399;-88
2023/06/18 08:46:13;;;;;;;;;19.75;19.75;;;;;23.98;58.33;100808.81;6239726;22;45452;-88
2023/06/18 08:49:05;;;;;;;;;22.25;21.50;;;;;24.01;58.69;100808.50;6215695;22;45270;-88
2023/06/18 08:51:31;;;;;;;;;22.25;21.25;;;;;24.00;59.00;100810.34;6235580;22;45495;-88
2023/06/18 08:54:03;;;;;;;;;20.00;19.50;;;;;24.02;58.53;100816.34;6216010;22;45521;-88
2023/06/18 08:56:30;;;;;;;;;24.00;22.00;;;;;24.00;58.81;100806.84;6240013;22;45689;-87
2023/06/18 08:58:57;;;;;;;;;19.00;17.75;;;;;24.03;58.99;100810.03;6241601;22;44736;-87
2023/06/18 09:01:24;;;;;;;;;22.25;22.00;;;;;24.03;58.72;100804.72;6219933;22;45270;-88
2023/06/18 09:03:51;;;;;;;;;23.00;22.00;;;;;24.04;58.59;100808.25;6217594;22;45482;-88
2023/06/18 09:06:17;;;;;;;;;20.50;20.00;;;;;24.07;59.24;100802.63;6239954;22;45300;-88
2023/06/18 09:08:52;;;;;;;;;19.25;18.50;;;;;24.10;58.95;100799.72;6250764;22;45354;-95
2023/06/18 09:11:18;;;;;;;;;22.25;20.50;;;;;24.14;58.76;100802.94;6276380;22;45240;-95
2023/06/18 09:13:44;;;;;;;;;22.25;21.00;;;;;24.17;59.32;100799.16;6275004;22;44946;-88
2023/06/18 09:16:13;;;;;;;;;21.00;20.50;;;;;24.20;58.82;100796.22;6272585;22;46034;-88
2023/06/18 09:18:39;;;;;;;;;22.00;20.25;;;;;24.23;58.99;100790.59;6298395;22;45175;-88
2023/06/18 09:21:05;;;;;;;;;19.75;19.25;;;;;24.26;58.48;100796.47;6272486;22;45331;-87
2023/06/18 09:23:31;;;;;;;;;19.50;17.75;;;;;24.27;58.36;100792.00;6272952;22;45317;-88
2023/06/18 09:26:00;;;;;;;;;22.25;20.50;;;;;24.32;58.38;100791.56;6271389;22;46633;-88
2023/06/18 09:28:27;;;;;;;;;19.33;19.00;;;;;24.37;58.55;100792.81;6272216;22;45380;-88
2023/06/18 09:31:03;;;;;;;;;22.50;21.50;;;;;24.41;58.21;100788.03;6273356;22;45288;-88
2023/06/18 09:33:36;;;;;;;;;21.00;20.75;;;;;24.44;58.18;100779.75;6274054;22;45493;-88
2023/06/18 09:36:07;;;;;;;;;23.75;20.00;;;;;24.52;57.91;100779.88;6275290;22;45974;-88
2023/06/18 09:38:41;;;;;;;;;20.25;20.00;;;;;24.59;58.43;100780.13;6279943;22;45391;-88
2023/06/18 09:41:12;;;;;;;;;17.50;17.50;;;;;24.66;57.87;100773.25;6280748;22;45235;-88
2023/06/18 09:43:40;;;;;;;;;18.75;18.75;;;;;24.73;57.42;100770.84;6273584;22;45285;-88
2023/06/18 09:46:10;;;;;;;;;14.75;14.75;;;;;24.77;56.91;100772.19;6272341;22;47023;-88
2023/06/18 09:48:37;;;;;;;;;17.25;15.25;;;;;24.88;56.79;100760.56;6272850;22;45203;-95
2023/06/18 09:51:06;;;;;;;;;14.67;14.67;;;;;24.93;56.68;100760.94;6274769;22;44712;-96
2023/06/18 09:53:33;;;;;;;;;16.25;16.25;;;;;25.06;55.92;100762.41;6274246;22;45472;-96
2023/06/18 09:56:16;;;;;;;;;18.50;18.50;;;;;25.11;55.44;100765.47;6271731;22;46134;-94
2023/06/18 10:01:47;;;;;;;;;18.25;16.00;;;;;25.38;55.41;100769.06;6274714;22;45434;-92
2023/06/18 10:04:13;;;;;;;;;18.00;17.50;;;;;25.47;55.27;100768.13;6247119;22;45617;-95
2023/06/18 10:06:40;;;;;;;;;16.50;16.25;;;;;25.59;55.31;100773.28;6274904;22;45277;-95
2023/06/18 10:09:07;;;;;;;;;19.33;18.67;;;;;25.68;54.24;100760.84;6246365;22;45369;-93
2023/06/18 10:11:35;;;;;;;;;18.00;18.00;;;;;25.75;53.69;100769.91;6247143;22;45228;-94
2023/06/18 10:14:05;;;;;;;;;17.67;17.33;;;;;25.82;53.80;100770.94;6245255;22;45284;-93
2023/06/18 10:16:32;;;;;;;;;16.33;16.33;;;;;25.89;53.90;100766.66;6247168;22;46004;-95
2023/06/18 10:19:17;;;;;;;;;21.00;20.00;;;;;25.94;52.67;100770.69;6274491;22;45196;-95
2023/06/18 10:22:05;;;;;;;;;21.00;20.50;;;;;25.98;53.05;100767.56;6248186;22;45232;-94
2023/06/18 10:24:45;;;;;;;;;25.75;23.00;;;;;26.01;52.75;100758.44;6247463;22;45480;-94
2023/06/18 10:27:11;;;;;;;;;19.75;19.25;;;;;26.05;52.59;100759.75;6246428;22;47389;-95
2023/06/18 10:29:37;;;;;;;;;17.00;14.75;;;;;26.11;52.87;100747.66;6246529;22;45737;-93
2023/06/18 10:32:04;;;;;;;;;14.00;14.00;;;;;26.22;52.76;100749.19;6246442;22;44763;-96
2023/06/18 10:34:31;;;;;;;;;18.75;18.75;;;;;26.32;52.75;100747.28;6247802;22;45300;-93
2023/06/18 10:36:58;;;;;;;;;18.75;17.75;;;;;26.44;52.03;100747.84;6274467;22;45425;-96
2023/06/18 10:42:12;;;;;;;;;18.00;18.00;;;;;26.67;52.45;100733.94;6258094;22;45640;-96
2023/06/18 10:44:46;;;;;;;;;20.50;18.50;;;;;26.90;51.48;100742.16;6302826;22;45343;-96
2023/06/18 10:47:19;;;;;;;;;19.75;19.00;;;;;26.99;50.63;100736.88;6303677;22;45862;-96
2023/06/18 10:50:00;;;;;;;;;18.00;18.00;;;;;27.18;50.95;100743.75;6303872;22;45409;-96
2023/06/18 10:52:27;;;;;;;;;22.25;22.25;;;;;27.32;50.00;100736.94;6303068;22;44886;-96
2023/06/18 10:55:06;;;;;;;;;22.00;22.00;;;;;27.39;50.14;100721.09;6303110;22;45183;-96
2023/06/18 10:57:31;;;;;;;;;23.75;21.75;;;;;27.54;48.42;100734.59;6304385;22;45435;-95
2023/06/18 10:59:57;;;;;;;;;20.25;20.25;;;;;27.45;48.87;100710.53;6305484;22;44803;-96
2023/06/18 11:02:34;;;;;;;;;15.75;15.75;;;;;27.58;49.30;100730.59;6328364;22;44794;-95
2023/06/18 11:05:00;;;;;;;;;17.50;17.50;;;;;27.61;48.81;100708.91;6304425;22;45454;-95
2023/06/18 11:07:27;;;;;;;;;18.75;18.75;;;;;27.72;49.35;100702.38;6303483;22;45633;-95
2023/06/18 11:09:58;;;;;;;;;20.75;20.25;;;;;28.00;49.36;100718.84;6301454;22;45496;-96
2023/06/18 11:12:44;;;;;;;;;23.50;23.00;;;;;28.15;48.92;100710.13;6303660;22;44882;-96
2023/06/18 11:15:17;;;;;;;;;20.25;20.25;;;;;28.43;48.52;100714.22;6331100;22;44847;-96
2023/06/18 11:17:48;;;;;;;;;18.50;17.50;;;;;28.55;47.88;100702.13;6303219;22;47081;-96
2023/06/18 11:20:15;;;;;;;;;19.50;19.50;;;;;28.85;47.99;100702.28;6304819;22;45452;-96
2023/06/18 11:22:42;;;;;;;;;17.50;17.25;;;;;29.00;47.41;100697.03;6306793;22;45301;-96
2023/06/18 11:25:12;;;;;;;;;18.50;18.50;;;;;29.15;46.40;100683.69;6309787;22;44840;-96